Ciclone tropical LUCAS 2021: trajetória, intensidade e histórico
4/02/2021, 00:00:00
24/01/2021, 12:00:00 – 4/02/2021, 00:00:00
Trajetória histórica
Acompanhe a evolução e o deslocamento de Ciclone tropical LUCAS em 2021, com a trajetória completa registrada, ventos máximos sustentados de 65 nós, pressão central mínima e cronologia detalhada.
| Data | Hora | Tipo | Ventokm/h | PressãohPa |
|---|---|---|---|---|
| 04/02 | 00:00 | SDDepressão subtropical | 35 | 1002 |
| 03/02 | 21:00 | TDDepressão tropical | 45 | 1001 |
| 03/02 | 18:00 | TDDepressão tropical | 45 | 999 |
| 03/02 | 15:00 | SSTempestade subtropical | 55 | 996 |
| 03/02 | 12:00 | DBPerturbação tropical | 65 | 992 |
| 03/02 | 09:00 | SSTempestade subtropical | 75 | 990 |
| 03/02 | 06:00 | C1Ciclone tropical de categoria 1 | 85 | 988 |
| 03/02 | 03:00 | TSTempestade tropical | 90 | 988 |
| 03/02 | 00:00 | C1Ciclone tropical de categoria 1 | 95 | 988 |
| 02/02 | 21:00 | TSTempestade tropical | 100 | 987 |
| 02/02 | 18:00 | C1Ciclone tropical de categoria 1 | 100 | 986 |
| 02/02 | 15:00 | TSTempestade tropical | 95 | 988 |
| 02/02 | 12:00 | C2Ciclone tropical de categoria 2 | 85 | 990 |
| 02/02 | 09:00 | TSTempestade tropical | 85 | 990 |
| 02/02 | 06:00 | C2Ciclone tropical de categoria 2 | 85 | 990 |
| 02/02 | 03:00 | TSTempestade tropical | 85 | 990 |
| 02/02 | 00:00 | C2Ciclone tropical de categoria 2 | 85 | 990 |
| 01/02 | 21:00 | TSTempestade tropical | 100 | 987 |
| 01/02 | 18:00 | C2Ciclone tropical de categoria 2 | 110 | 983 |
| 01/02 | 15:00 | TCCiclone tropical | 115 | 982 |
| 01/02 | 12:00 | C2Ciclone tropical de categoria 2 | 120 | 980 |
| 01/02 | 09:00 | TSTempestade tropical | 115 | 982 |
| 01/02 | 06:00 | C2Ciclone tropical de categoria 2 | 110 | 983 |
| 01/02 | 03:00 | TSTempestade tropical | 100 | 987 |
| 01/02 | 00:00 | C1Ciclone tropical de categoria 1 | 95 | 991 |
| 31/01 | 21:00 | TSTempestade tropical | 100 | 990 |
| 31/01 | 18:00 | C1Ciclone tropical de categoria 1 | 100 | 989 |
| 31/01 | 15:00 | TSTempestade tropical | 100 | 988 |
| 31/01 | 12:00 | C1Ciclone tropical de categoria 1 | 100 | 987 |
| 31/01 | 09:00 | TSTempestade tropical | 95 | 990 |
| 31/01 | 06:00 | C1Ciclone tropical de categoria 1 | 85 | 992 |
| 31/01 | 03:00 | TSTempestade tropical | 75 | 995 |
| 31/01 | 00:00 | C1Ciclone tropical de categoria 1 | 65 | 998 |
| 30/01 | 21:00 | TDDepressão tropical | 60 | 998 |
| 30/01 | 18:00 | TDDepressão tropical | 55 | 997 |
| 30/01 | 15:00 | TDDepressão tropical | 55 | 997 |
| 30/01 | 12:00 | TDDepressão tropical | 55 | 997 |
| 30/01 | 09:00 | TDDepressão tropical | 55 | 997 |
| 30/01 | 06:00 | TDDepressão tropical | 55 | 997 |
| 30/01 | 03:00 | TDDepressão tropical | 55 | 999 |
| 30/01 | 00:00 | TDDepressão tropical | 55 | 1000 |
| 29/01 | 21:00 | TDDepressão tropical | 50 | 1000 |
| 29/01 | 18:00 | TDDepressão tropical | 45 | 999 |
| 29/01 | 15:00 | TDDepressão tropical | 45 | 1001 |
| 29/01 | 12:00 | TDDepressão tropical | 45 | 1002 |
| 29/01 | 09:00 | DBPerturbação tropical | 45 | 1001 |
| 29/01 | 06:00 | TDDepressão tropical | 35 | 999 |
| 29/01 | 03:00 | DBPerturbação tropical | 35 | 999 |
| 29/01 | 00:00 | TDDepressão tropical | 35 | 999 |
| 28/01 | 21:00 | DBPerturbação tropical | 35 | 1000 |
| 28/01 | 18:00 | TDDepressão tropical | 30 | 1001 |
| 28/01 | 15:00 | DBPerturbação tropical | 30 | 1001 |
| 28/01 | 12:00 | TDDepressão tropical | 30 | 1001 |
| 28/01 | 09:00 | DBPerturbação tropical | 25 | 1001 |
| 28/01 | 06:00 | TDDepressão tropical | 20 | 1001 |
| 28/01 | 03:00 | DBPerturbação tropical | 25 | 1003 |
| 28/01 | 00:00 | TDDepressão tropical | 30 | 1004 |
| 27/01 | 21:00 | DBPerturbação tropical | 25 | 1004 |
| 27/01 | 18:00 | TDDepressão tropical | 20 | 1003 |
| 27/01 | 15:00 | DBPerturbação tropical | 20 | 1003 |
| 27/01 | 12:00 | TDDepressão tropical | 20 | 1003 |
| 27/01 | 09:00 | DBPerturbação tropical | 30 | 1002 |
| 27/01 | 06:00 | TDDepressão tropical | 35 | 1000 |
| 27/01 | 03:00 | DBPerturbação tropical | 35 | 1000 |
| 27/01 | 00:00 | TDDepressão tropical | 35 | 1000 |
| 26/01 | 21:00 | DBPerturbação tropical | 35 | 1002 |
| 26/01 | 18:00 | TDDepressão tropical | 30 | 1003 |
| 26/01 | 15:00 | DBPerturbação tropical | 30 | 1003 |
| 26/01 | 12:00 | TDDepressão tropical | 30 | 1003 |
| 26/01 | 09:00 | DBPerturbação tropical | 30 | 1003 |
| 26/01 | 06:00 | TDDepressão tropical | 30 | 1003 |
| 26/01 | 03:00 | DBPerturbação tropical | 30 | 1003 |
| 26/01 | 00:00 | TDDepressão tropical | 30 | 1003 |
| 25/01 | 21:00 | TDDepressão tropical | 35 | 1001 |
| 25/01 | 18:00 | TDDepressão tropical | 45 | 999 |
| 25/01 | 15:00 | TDDepressão tropical | 45 | 999 |
| 25/01 | 12:00 | TDDepressão tropical | 45 | 999 |
| 25/01 | 09:00 | TDDepressão tropical | 45 | 1002 |
| 25/01 | 06:00 | TDDepressão tropical | 45 | 1004 |
| 25/01 | 03:00 | DBPerturbação tropical | 45 | 1006 |
| 25/01 | 00:00 | TDDepressão tropical | 35 | 1007 |
| 24/01 | 21:00 | TDDepressão tropical | 35 | 1003 |
| 24/01 | 18:00 | TDDepressão tropical | 35 | 1003 |
| 24/01 | 15:00 | TDDepressão tropical | 35 | 1003 |
| 24/01 | 12:00 | TDDepressão tropical | 35 | 1003 |
Cronologia de localização
85 Registos de localizaçãoDesastres naturais próximos
Detalhes do evento
Ligações das fontes
Também pode encontrar estas ferramentas úteis
A localização, a extensão e o estado de cada evento podem ser atualizados em momentos diferentes consoante a fonte. Confirme decisões importantes junto das autoridades oficiais de emergência.
Os registos de eventos provêm da NASA EONET e são complementados por registos de deslizamentos de terra do USGS FDSN. As análises e previsões de tempestades podem utilizar a NOAA NHC ou o JTWC, com registos históricos ATCF da UCAR/NCAR quando disponíveis. As imagens de satélite provêm da NASA Worldview/GIBS (GOES e Himawari) ou da EUMETSAT Meteosat, consoante a cobertura do mapa.
Fontes: NASA EONET · USGS · NOAA NHC · JTWC · UCAR/NCAR ATCF · NASA Worldview/GIBS · EUMETSAT Meteosat · OpenStreetMap contributors